SBI6419 UIII-UWUU
Flight info
| Callsign | SBI6419 |
|---|---|
| Flight time | N/A |
| Altitude | 34000 |
| Route | BOGRA5D BOGRA A815 TUTEK A91 SUKOR A817 RO N869 ROTLI/K0830F360 A300 TOKMO G827 KENGA A300 ML B956 PEMAG L158 LANTO T759 ASPUM ASPUM2Z |
| Aircraft | A320/M-SDE3FGHIRWY/LB1 |
Departure
| Time | 2026-05-08 13:06 |
|---|---|
| Airport | Irkutsk International Airport (UIII) |
Arrival
| Time | N/A |
|---|---|
| Airport | Ufa International Airport (UWUU) |
| Time | Latitude | Longitude | Altitude | Speed | Heading |
|---|---|---|---|---|---|
| 2026-05-08 12:37 | 52.27089 | 104.36882 | 1629 ft | 0 kts | 199° |
| 2026-05-08 12:56 | 52.27067 | 104.36869 | 1632 ft | 5 kts | 199° |
| 2026-05-08 12:56 | 52.27049 | 104.36885 | 1631 ft | 2 kts | 135° |
| 2026-05-08 12:56 | 52.27031 | 104.36945 | 1629 ft | 7 kts | 110° |
| 2026-05-08 12:56 | 52.27016 | 104.37013 | 1629 ft | 5 kts | 110° |
| 2026-05-08 12:57 | 52.27005 | 104.37061 | 1629 ft | 4 kts | 110° |
| 2026-05-08 12:57 | 52.26987 | 104.37140 | 1629 ft | 9 kts | 109° |
| 2026-05-08 12:57 | 52.26996 | 104.37221 | 1629 ft | 6 kts | 71° |
| 2026-05-08 12:57 | 52.26989 | 104.37330 | 1629 ft | 19 kts | 113° |
| 2026-05-08 12:58 | 52.26932 | 104.37543 | 1631 ft | 20 kts | 113° |
| 2026-05-08 12:58 | 52.26878 | 104.37747 | 1634 ft | 19 kts | 113° |
| 2026-05-08 12:58 | 52.26827 | 104.37937 | 1637 ft | 18 kts | 113° |
| 2026-05-08 12:58 | 52.26780 | 104.38114 | 1639 ft | 16 kts | 114° |
| 2026-05-08 12:59 | 52.26739 | 104.38270 | 1641 ft | 14 kts | 113° |
| 2026-05-08 12:59 | 52.26707 | 104.38391 | 1643 ft | 10 kts | 113° |
| 2026-05-08 12:59 | 52.26677 | 104.38502 | 1644 ft | 15 kts | 113° |
| 2026-05-08 12:59 | 52.26619 | 104.38719 | 1647 ft | 25 kts | 113° |
| 2026-05-08 13:00 | 52.26548 | 104.38986 | 1651 ft | 25 kts | 113° |
| 2026-05-08 13:00 | 52.26487 | 104.39220 | 1669 ft | 21 kts | 113° |
| 2026-05-08 13:00 | 52.26429 | 104.39434 | 1659 ft | 20 kts | 113° |
| 2026-05-08 13:00 | 52.26376 | 104.39636 | 1663 ft | 19 kts | 114° |
| 2026-05-08 13:01 | 52.26325 | 104.39826 | 1664 ft | 18 kts | 113° |
| 2026-05-08 13:01 | 52.26271 | 104.40030 | 1665 ft | 20 kts | 113° |
| 2026-05-08 13:01 | 52.26217 | 104.40234 | 1676 ft | 19 kts | 113° |
| 2026-05-08 13:01 | 52.26164 | 104.40433 | 1677 ft | 22 kts | 113° |
| 2026-05-08 13:02 | 52.26099 | 104.40677 | 1681 ft | 23 kts | 113° |
| 2026-05-08 13:02 | 52.26039 | 104.40904 | 1679 ft | 17 kts | 113° |
| 2026-05-08 13:02 | 52.25997 | 104.41062 | 1681 ft | 9 kts | 109° |
| 2026-05-08 13:02 | 52.26001 | 104.41144 | 1680 ft | 5 kts | 69° |
| 2026-05-08 13:03 | 52.26025 | 104.41178 | 1680 ft | 7 kts | 30° |
| 2026-05-08 13:03 | 52.26099 | 104.41233 | 1680 ft | 7 kts | 24° |
| 2026-05-08 13:03 | 52.26100 | 104.41234 | 1680 ft | 0 kts | 24° |
| 2026-05-08 13:03 | 52.26103 | 104.41237 | 1680 ft | 4 kts | 24° |
| 2026-05-08 13:04 | 52.26163 | 104.41279 | 1683 ft | 10 kts | 24° |
| 2026-05-08 13:04 | 52.26217 | 104.41291 | 1681 ft | 7 kts | 338° |
| 2026-05-08 13:04 | 52.26246 | 104.41222 | 1682 ft | 8 kts | 294° |
| 2026-05-08 13:04 | 52.26249 | 104.41210 | 1682 ft | 1 kts | 293° |
| 2026-05-08 13:05 | 52.26266 | 104.41146 | 1679 ft | 27 kts | 293° |
| 2026-05-08 13:05 | 52.26444 | 104.40480 | 1671 ft | 98 kts | 294° |
| 2026-05-08 13:05 | 52.26795 | 104.39160 | 1650 ft | 153 kts | 294° |
| 2026-05-08 13:05 | 52.27268 | 104.37400 | 1918 ft | 174 kts | 294° |
| 2026-05-08 13:06 | 52.27784 | 104.35551 | 2481 ft | 183 kts | 295° |
| 2026-05-08 13:06 | 52.28318 | 104.33626 | 3016 ft | 192 kts | 293° |
| 2026-05-08 13:06 | 52.28889 | 104.31553 | 3278 ft | 209 kts | 294° |
| 2026-05-08 13:06 | 52.29528 | 104.29298 | 3483 ft | 230 kts | 301° |
| 2026-05-08 13:07 | 52.30745 | 104.27469 | 3731 ft | 251 kts | 332° |
| 2026-05-08 13:07 | 52.32393 | 104.26358 | 4357 ft | 259 kts | 342° |
| 2026-05-08 13:07 | 52.34122 | 104.25525 | 5177 ft | 259 kts | 344° |
| 2026-05-08 13:07 | 52.35861 | 104.24737 | 6008 ft | 259 kts | 344° |
| 2026-05-08 13:08 | 52.37594 | 104.23909 | 6810 ft | 259 kts | 343° |
| 2026-05-08 13:08 | 52.39295 | 104.23039 | 7544 ft | 260 kts | 342° |
| 2026-05-08 13:08 | 52.41024 | 104.22107 | 8309 ft | 262 kts | 340° |
| 2026-05-08 13:08 | 52.42750 | 104.21143 | 9076 ft | 263 kts | 340° |
| 2026-05-08 13:09 | 52.44484 | 104.20153 | 9830 ft | 264 kts | 339° |
| 2026-05-08 13:09 | 52.46238 | 104.19135 | 10277 ft | 276 kts | 339° |
| 2026-05-08 13:09 | 52.48122 | 104.18031 | 10418 ft | 299 kts | 339° |
| 2026-05-08 13:09 | 52.50138 | 104.16851 | 10722 ft | 313 kts | 339° |
| 2026-05-08 13:10 | 52.52206 | 104.15642 | 11297 ft | 318 kts | 340° |
| 2026-05-08 13:10 | 52.54299 | 104.14418 | 11933 ft | 321 kts | 340° |
| 2026-05-08 13:10 | 52.56410 | 104.13185 | 12577 ft | 323 kts | 340° |
| 2026-05-08 13:10 | 52.58538 | 104.11939 | 13200 ft | 326 kts | 340° |
| 2026-05-08 13:11 | 52.60688 | 104.10680 | 13831 ft | 329 kts | 340° |
| 2026-05-08 13:11 | 52.62859 | 104.09406 | 14373 ft | 332 kts | 340° |
| 2026-05-08 13:11 | 52.65043 | 104.08124 | 14919 ft | 335 kts | 340° |
| 2026-05-08 13:11 | 52.67245 | 104.06833 | 15454 ft | 338 kts | 340° |
| 2026-05-08 13:12 | 52.69477 | 104.05520 | 15991 ft | 341 kts | 340° |
| 2026-05-08 13:12 | 52.71717 | 104.04199 | 16513 ft | 344 kts | 340° |
| 2026-05-08 13:12 | 52.73982 | 104.02859 | 17031 ft | 347 kts | 340° |
| 2026-05-08 13:12 | 52.76263 | 104.01505 | 17546 ft | 350 kts | 340° |
| 2026-05-08 13:13 | 52.78568 | 104.00138 | 18067 ft | 353 kts | 340° |
| 2026-05-08 13:13 | 52.80893 | 103.98759 | 18527 ft | 357 kts | 340° |
| 2026-05-08 13:13 | 52.83237 | 103.97365 | 18976 ft | 359 kts | 340° |
| 2026-05-08 13:13 | 52.85601 | 103.95958 | 19435 ft | 362 kts | 340° |
| 2026-05-08 13:14 | 52.87982 | 103.94542 | 19883 ft | 365 kts | 340° |
| 2026-05-08 13:14 | 52.90382 | 103.93117 | 20330 ft | 368 kts | 340° |
| 2026-05-08 13:14 | 52.92801 | 103.91681 | 20785 ft | 371 kts | 340° |
| 2026-05-08 13:14 | 52.95240 | 103.90233 | 21227 ft | 374 kts | 340° |
| 2026-05-08 13:15 | 52.97695 | 103.88765 | 21658 ft | 377 kts | 340° |
| 2026-05-08 13:15 | 53.00141 | 103.87299 | 22086 ft | 379 kts | 340° |
| 2026-05-08 13:15 | 53.02635 | 103.85805 | 22496 ft | 382 kts | 340° |
| 2026-05-08 13:15 | 53.05146 | 103.84299 | 22921 ft | 385 kts | 340° |
| 2026-05-08 13:16 | 53.07679 | 103.82782 | 23326 ft | 387 kts | 340° |
| 2026-05-08 13:16 | 53.10224 | 103.81254 | 23688 ft | 390 kts | 340° |
| 2026-05-08 13:16 | 53.12784 | 103.79712 | 24022 ft | 392 kts | 340° |
| 2026-05-08 13:16 | 53.15345 | 103.78113 | 24362 ft | 394 kts | 336° |
| 2026-05-08 13:17 | 53.17838 | 103.76183 | 24695 ft | 396 kts | 335° |
| 2026-05-08 13:17 | 53.20333 | 103.74233 | 25018 ft | 397 kts | 335° |
| 2026-05-08 13:17 | 53.22838 | 103.72271 | 25336 ft | 399 kts | 335° |
| 2026-05-08 13:17 | 53.25359 | 103.70294 | 25650 ft | 400 kts | 335° |
| 2026-05-08 13:18 | 53.27885 | 103.68311 | 25959 ft | 402 kts | 335° |
| 2026-05-08 13:18 | 53.30386 | 103.66347 | 26264 ft | 403 kts | 336° |
| 2026-05-08 13:18 | 53.32932 | 103.64349 | 26567 ft | 405 kts | 336° |
| 2026-05-08 13:18 | 53.35486 | 103.62344 | 26867 ft | 406 kts | 336° |
| 2026-05-08 13:19 | 53.38052 | 103.60328 | 27162 ft | 408 kts | 336° |
| 2026-05-08 13:19 | 53.40624 | 103.58304 | 27446 ft | 409 kts | 336° |
| 2026-05-08 13:19 | 53.43203 | 103.56268 | 27733 ft | 411 kts | 336° |
| 2026-05-08 13:19 | 53.45792 | 103.54217 | 28011 ft | 412 kts | 336° |
| 2026-05-08 13:20 | 53.48310 | 103.51876 | 28275 ft | 415 kts | 327° |
| 2026-05-08 13:20 | 53.50559 | 103.48822 | 28536 ft | 419 kts | 317° |
| 2026-05-08 13:20 | 53.52487 | 103.45116 | 28786 ft | 423 kts | 308° |
| 2026-05-08 13:20 | 53.54044 | 103.40888 | 29024 ft | 427 kts | 302° |
| 2026-05-08 13:21 | 53.55510 | 103.36538 | 29261 ft | 428 kts | 302° |
| 2026-05-08 13:21 | 53.56985 | 103.32166 | 29509 ft | 430 kts | 302° |
| 2026-05-08 13:21 | 53.58464 | 103.27780 | 29713 ft | 431 kts | 302° |
| 2026-05-08 13:21 | 53.59946 | 103.23370 | 29935 ft | 433 kts | 302° |
| 2026-05-08 13:22 | 53.61427 | 103.18956 | 30139 ft | 433 kts | 302° |
| 2026-05-08 13:22 | 53.62909 | 103.14536 | 30398 ft | 432 kts | 302° |
| 2026-05-08 13:22 | 53.64385 | 103.10134 | 30666 ft | 431 kts | 302° |
| 2026-05-08 13:22 | 53.65855 | 103.05739 | 30935 ft | 430 kts | 302° |
| 2026-05-08 13:23 | 53.67316 | 103.01347 | 31202 ft | 429 kts | 302° |
| 2026-05-08 13:23 | 53.68756 | 102.96996 | 31460 ft | 428 kts | 302° |
| 2026-05-08 13:23 | 53.70206 | 102.92617 | 31730 ft | 427 kts | 302° |
| 2026-05-08 13:23 | 53.71657 | 102.88239 | 31991 ft | 426 kts | 301° |
| 2026-05-08 13:24 | 53.73099 | 102.83881 | 32248 ft | 425 kts | 301° |
| 2026-05-08 13:24 | 53.74541 | 102.79518 | 32505 ft | 424 kts | 301° |
| 2026-05-08 13:24 | 53.75974 | 102.75174 | 32757 ft | 423 kts | 301° |
| 2026-05-08 13:24 | 53.77400 | 102.70829 | 32992 ft | 422 kts | 301° |
| 2026-05-08 13:25 | 53.78826 | 102.66479 | 33248 ft | 421 kts | 301° |
| 2026-05-08 13:25 | 53.80245 | 102.62153 | 33492 ft | 420 kts | 301° |
| 2026-05-08 13:25 | 53.81662 | 102.57828 | 33734 ft | 420 kts | 301° |
| 2026-05-08 13:25 | 53.83072 | 102.53506 | 33919 ft | 419 kts | 301° |
| 2026-05-08 13:26 | 53.85861 | 102.44935 | 33948 ft | 413 kts | 301° |
| 2026-05-08 13:26 | 53.88610 | 102.36470 | 33950 ft | 412 kts | 300° |
| 2026-05-08 13:27 | 53.91374 | 102.27938 | 33942 ft | 412 kts | 300° |
| 2026-05-08 13:27 | 53.94126 | 102.19389 | 33946 ft | 412 kts | 300° |
| 2026-05-08 13:28 | 53.96877 | 102.10826 | 33942 ft | 412 kts | 300° |
| 2026-05-08 13:28 | 53.99620 | 102.02269 | 33940 ft | 412 kts | 300° |
| 2026-05-08 13:29 | 54.02352 | 101.93697 | 33932 ft | 412 kts | 300° |
| 2026-05-08 13:29 | 54.05069 | 101.85181 | 33932 ft | 412 kts | 300° |
| 2026-05-08 13:30 | 54.07804 | 101.76597 | 33934 ft | 412 kts | 300° |
| 2026-05-08 13:30 | 54.10544 | 101.68005 | 33932 ft | 412 kts | 300° |
| 2026-05-08 13:31 | 54.13266 | 101.59385 | 33928 ft | 412 kts | 300° |
| 2026-05-08 13:31 | 54.15980 | 101.50741 | 33923 ft | 412 kts | 300° |
| 2026-05-08 13:32 | 54.18666 | 101.42169 | 33923 ft | 412 kts | 299° |
| 2026-05-08 13:32 | 54.21371 | 101.33520 | 33924 ft | 412 kts | 299° |
| 2026-05-08 13:33 | 54.23607 | 101.26324 | 33926 ft | 412 kts | 299° |
| 2026-05-08 13:33 | 54.26294 | 101.17671 | 33926 ft | 412 kts | 299° |
| 2026-05-08 13:34 | 54.28979 | 101.09012 | 33918 ft | 412 kts | 299° |
| 2026-05-08 13:34 | 54.31656 | 101.00335 | 33916 ft | 412 kts | 299° |
| 2026-05-08 13:35 | 54.34322 | 100.91643 | 33915 ft | 412 kts | 298° |
| 2026-05-08 13:35 | 54.36965 | 100.83007 | 33916 ft | 411 kts | 298° |
| 2026-05-08 13:36 | 54.39624 | 100.74292 | 33916 ft | 411 kts | 298° |
| 2026-05-08 13:36 | 54.42270 | 100.65593 | 33917 ft | 411 kts | 298° |
| 2026-05-08 13:37 | 54.44911 | 100.56877 | 33914 ft | 411 kts | 298° |
| 2026-05-08 13:37 | 54.47540 | 100.48147 | 33917 ft | 411 kts | 298° |
| 2026-05-08 13:38 | 54.50162 | 100.39418 | 33911 ft | 411 kts | 298° |
| 2026-05-08 13:38 | 54.52763 | 100.30739 | 33908 ft | 410 kts | 298° |
| 2026-05-08 13:39 | 54.55374 | 100.21999 | 33914 ft | 410 kts | 298° |
| 2026-05-08 13:39 | 54.57975 | 100.13245 | 33911 ft | 410 kts | 298° |
| 2026-05-08 13:40 | 54.60569 | 100.04489 | 33911 ft | 410 kts | 298° |
| 2026-05-08 13:40 | 54.63157 | 99.95734 | 33910 ft | 409 kts | 298° |
| 2026-05-08 13:41 | 54.65737 | 99.86965 | 33916 ft | 409 kts | 298° |
| 2026-05-08 13:41 | 54.68286 | 99.78242 | 33911 ft | 409 kts | 297° |
| 2026-05-08 13:42 | 54.70848 | 99.69435 | 33909 ft | 409 kts | 297° |
| 2026-05-08 13:42 | 54.73404 | 99.60640 | 33912 ft | 409 kts | 298° |
| 2026-05-08 13:43 | 54.75962 | 99.51823 | 33908 ft | 409 kts | 297° |
| 2026-05-08 13:43 | 54.78509 | 99.43023 | 33910 ft | 408 kts | 297° |
| 2026-05-08 13:44 | 54.81025 | 99.34270 | 33910 ft | 408 kts | 297° |
| 2026-05-08 13:44 | 54.83545 | 99.25443 | 33917 ft | 408 kts | 297° |
| 2026-05-08 13:45 | 54.86058 | 99.16612 | 33916 ft | 408 kts | 297° |
| 2026-05-08 13:45 | 54.88521 | 99.07723 | 33922 ft | 408 kts | 292° |
| 2026-05-08 13:46 | 54.89902 | 98.98133 | 33926 ft | 410 kts | 283° |
| 2026-05-08 13:46 | 54.90974 | 98.88373 | 33925 ft | 411 kts | 283° |
| 2026-05-08 13:47 | 54.92028 | 98.78674 | 33925 ft | 411 kts | 283° |
| 2026-05-08 13:47 | 54.93080 | 98.68920 | 33931 ft | 410 kts | 282° |
| 2026-05-08 13:48 | 54.94132 | 98.59141 | 33931 ft | 410 kts | 282° |
| 2026-05-08 13:48 | 54.95175 | 98.49383 | 33934 ft | 410 kts | 282° |
| 2026-05-08 13:49 | 54.96200 | 98.39617 | 33935 ft | 410 kts | 282° |
| 2026-05-08 13:49 | 54.97215 | 98.29916 | 33936 ft | 410 kts | 282° |
| 2026-05-08 13:50 | 54.98228 | 98.20147 | 33936 ft | 409 kts | 282° |
| 2026-05-08 13:50 | 54.99229 | 98.10379 | 33933 ft | 409 kts | 282° |
| 2026-05-08 13:51 | 55.00225 | 98.00637 | 33937 ft | 408 kts | 282° |
| 2026-05-08 13:51 | 55.01215 | 97.90894 | 33933 ft | 408 kts | 282° |
| 2026-05-08 13:52 | 55.02194 | 97.81158 | 33930 ft | 407 kts | 281° |
| 2026-05-08 13:52 | 55.03152 | 97.71489 | 33934 ft | 407 kts | 281° |
| 2026-05-08 13:53 | 55.04111 | 97.61753 | 33936 ft | 406 kts | 281° |
| 2026-05-08 13:53 | 55.05062 | 97.52044 | 33935 ft | 406 kts | 281° |
| 2026-05-08 13:54 | 55.06001 | 97.42325 | 33933 ft | 405 kts | 281° |
| 2026-05-08 13:54 | 55.06928 | 97.32683 | 33934 ft | 405 kts | 281° |
| 2026-05-08 13:55 | 55.07846 | 97.22989 | 33933 ft | 404 kts | 281° |
| 2026-05-08 13:56 | 55.09205 | 97.08484 | 33936 ft | 403 kts | 281° |
| 2026-05-08 13:56 | 55.10068 | 96.98863 | 33941 ft | 402 kts | 280° |
| 2026-05-08 13:57 | 55.10892 | 96.89199 | 33942 ft | 402 kts | 280° |
| 2026-05-08 13:57 | 55.11709 | 96.79556 | 33946 ft | 401 kts | 280° |
| 2026-05-08 13:58 | 55.12524 | 96.69940 | 33945 ft | 399 kts | 280° |
| 2026-05-08 13:58 | 55.13327 | 96.60411 | 33942 ft | 398 kts | 280° |
| 2026-05-08 13:59 | 55.14125 | 96.50841 | 33939 ft | 397 kts | 280° |
| 2026-05-08 13:59 | 55.14914 | 96.41309 | 33943 ft | 397 kts | 279° |
| 2026-05-08 14:00 | 55.15691 | 96.31777 | 33942 ft | 396 kts | 279° |
| 2026-05-08 14:00 | 55.16459 | 96.22283 | 33943 ft | 395 kts | 279° |
| 2026-05-08 14:01 | 55.17217 | 96.12772 | 33945 ft | 394 kts | 279° |
| 2026-05-08 14:01 | 55.17969 | 96.03199 | 33942 ft | 393 kts | 279° |
| 2026-05-08 14:02 | 55.18707 | 95.93790 | 33939 ft | 392 kts | 279° |
| 2026-05-08 14:02 | 55.19444 | 95.84305 | 33938 ft | 392 kts | 279° |
| 2026-05-08 14:03 | 55.20173 | 95.74858 | 33939 ft | 391 kts | 279° |
| 2026-05-08 14:03 | 55.20891 | 95.65423 | 33934 ft | 390 kts | 279° |
| 2026-05-08 14:04 | 55.21598 | 95.56067 | 33934 ft | 389 kts | 279° |
| 2026-05-08 14:04 | 55.22300 | 95.46682 | 33945 ft | 388 kts | 279° |
| 2026-05-08 14:05 | 55.22988 | 95.37306 | 33939 ft | 388 kts | 279° |
| 2026-05-08 14:05 | 55.23666 | 95.27934 | 33936 ft | 387 kts | 278° |
| 2026-05-08 14:06 | 55.24336 | 95.18550 | 33939 ft | 387 kts | 278° |
| 2026-05-08 14:06 | 55.25008 | 95.09194 | 33944 ft | 386 kts | 278° |
| 2026-05-08 14:07 | 55.25667 | 94.99861 | 33939 ft | 386 kts | 278° |
| 2026-05-08 14:07 | 55.26324 | 94.90589 | 33931 ft | 385 kts | 281° |
| 2026-05-08 14:08 | 55.28047 | 94.81767 | 33934 ft | 384 kts | 294° |
| 2026-05-08 14:08 | 55.30247 | 94.73228 | 33927 ft | 383 kts | 293° |
| 2026-05-08 14:09 | 55.32425 | 94.64675 | 33920 ft | 383 kts | 293° |
| 2026-05-08 14:09 | 55.34585 | 94.56109 | 33914 ft | 383 kts | 293° |
| 2026-05-08 14:10 | 55.36751 | 94.47553 | 33910 ft | 383 kts | 293° |
| 2026-05-08 14:10 | 55.38916 | 94.38990 | 33907 ft | 383 kts | 293° |
| 2026-05-08 14:11 | 55.41066 | 94.30466 | 33905 ft | 383 kts | 292° |
| 2026-05-08 14:11 | 55.43220 | 94.21865 | 33899 ft | 384 kts | 292° |
| 2026-05-08 14:12 | 55.45369 | 94.13243 | 33893 ft | 384 kts | 292° |
| 2026-05-08 14:12 | 55.47514 | 94.04606 | 33890 ft | 385 kts | 292° |
| 2026-05-08 14:13 | 55.49659 | 93.95939 | 33891 ft | 386 kts | 292° |
| 2026-05-08 14:13 | 55.51804 | 93.87246 | 33889 ft | 386 kts | 292° |
| 2026-05-08 14:14 | 55.53931 | 93.78597 | 33889 ft | 386 kts | 292° |
| 2026-05-08 14:14 | 55.56058 | 93.69873 | 33886 ft | 387 kts | 292° |
| 2026-05-08 14:15 | 55.58180 | 93.61128 | 33890 ft | 387 kts | 291° |
| 2026-05-08 14:15 | 55.60307 | 93.52367 | 33883 ft | 387 kts | 291° |
| 2026-05-08 14:16 | 55.62430 | 93.43586 | 33883 ft | 388 kts | 291° |
| 2026-05-08 14:16 | 55.64525 | 93.34843 | 33879 ft | 388 kts | 291° |
| 2026-05-08 14:17 | 55.66638 | 93.26037 | 33879 ft | 389 kts | 291° |
| 2026-05-08 14:17 | 55.68748 | 93.17212 | 33879 ft | 389 kts | 291° |
| 2026-05-08 14:18 | 55.70851 | 93.08357 | 33874 ft | 389 kts | 291° |
| 2026-05-08 14:18 | 55.72937 | 92.99540 | 33871 ft | 390 kts | 291° |
| 2026-05-08 14:19 | 55.75035 | 92.90647 | 33874 ft | 391 kts | 291° |
| 2026-05-08 14:19 | 55.77131 | 92.81727 | 33873 ft | 391 kts | 291° |
| 2026-05-08 14:20 | 55.79224 | 92.72804 | 33872 ft | 391 kts | 291° |
| 2026-05-08 14:20 | 55.81305 | 92.63865 | 33868 ft | 391 kts | 291° |
| 2026-05-08 14:21 | 55.83280 | 92.55302 | 33868 ft | 392 kts | 290° |
| 2026-05-08 14:21 | 55.85357 | 92.46318 | 33869 ft | 392 kts | 291° |
| 2026-05-08 14:22 | 55.87455 | 92.37418 | 33865 ft | 392 kts | 291° |
| 2026-05-08 14:22 | 55.89574 | 92.28438 | 33865 ft | 392 kts | 291° |
| 2026-05-08 14:23 | 55.91325 | 92.20960 | 33865 ft | 393 kts | 291° |
| 2026-05-08 14:23 | 55.93417 | 92.11969 | 33869 ft | 393 kts | 291° |
| 2026-05-08 14:24 | 55.95501 | 92.02953 | 33874 ft | 393 kts | 291° |
| 2026-05-08 14:24 | 55.97584 | 91.93936 | 33876 ft | 393 kts | 291° |
| 2026-05-08 14:25 | 55.99656 | 91.84945 | 33879 ft | 393 kts | 291° |
| 2026-05-08 14:25 | 56.01727 | 91.75906 | 33879 ft | 393 kts | 290° |
| 2026-05-08 14:26 | 56.03790 | 91.66866 | 33881 ft | 393 kts | 290° |
| 2026-05-08 14:26 | 56.05850 | 91.57803 | 33879 ft | 393 kts | 290° |
| 2026-05-08 14:27 | 56.07897 | 91.48725 | 33876 ft | 393 kts | 290° |
| 2026-05-08 14:27 | 56.09935 | 91.39643 | 33875 ft | 393 kts | 290° |
| 2026-05-08 14:28 | 56.11956 | 91.30609 | 33881 ft | 392 kts | 290° |
| 2026-05-08 14:28 | 56.13970 | 91.21570 | 33878 ft | 392 kts | 290° |
| 2026-05-08 14:29 | 56.15996 | 91.12423 | 33879 ft | 392 kts | 290° |
| 2026-05-08 14:29 | 56.18005 | 91.03322 | 33880 ft | 392 kts | 290° |
| 2026-05-08 14:30 | 56.20009 | 90.94218 | 33885 ft | 392 kts | 290° |
| 2026-05-08 14:30 | 56.22005 | 90.85105 | 33885 ft | 392 kts | 290° |
| 2026-05-08 14:31 | 56.23989 | 90.76042 | 33886 ft | 391 kts | 290° |
| 2026-05-08 14:31 | 56.25968 | 90.66931 | 33891 ft | 391 kts | 290° |
| 2026-05-08 14:32 | 56.27369 | 90.57592 | 33889 ft | 389 kts | 275° |
| 2026-05-08 14:32 | 56.27563 | 90.52680 | 33893 ft | 389 kts | 274° |
| 2026-05-08 14:32 | 56.27934 | 90.42946 | 33894 ft | 389 kts | 275° |
| 2026-05-08 14:33 | 56.28296 | 90.33335 | 33896 ft | 389 kts | 275° |
| 2026-05-08 14:33 | 56.28664 | 90.23619 | 33901 ft | 389 kts | 275° |
| 2026-05-08 14:34 | 56.29030 | 90.13875 | 33902 ft | 388 kts | 275° |
| 2026-05-08 14:34 | 56.29376 | 90.04203 | 33913 ft | 388 kts | 274° |
| 2026-05-08 14:35 | 56.29712 | 89.94446 | 33913 ft | 388 kts | 274° |
| 2026-05-08 14:35 | 56.30036 | 89.84832 | 33919 ft | 387 kts | 274° |
| 2026-05-08 14:36 | 56.30365 | 89.75162 | 33918 ft | 387 kts | 274° |
| 2026-05-08 14:36 | 56.30684 | 89.65465 | 33922 ft | 386 kts | 274° |
| 2026-05-08 14:37 | 56.30994 | 89.55843 | 33924 ft | 386 kts | 274° |
| 2026-05-08 14:37 | 56.31296 | 89.46186 | 33930 ft | 385 kts | 274° |
| 2026-05-08 14:38 | 56.31585 | 89.36554 | 33928 ft | 385 kts | 274° |
| 2026-05-08 14:38 | 56.31873 | 89.26995 | 33931 ft | 384 kts | 274° |
| 2026-05-08 14:39 | 56.32142 | 89.17461 | 33934 ft | 384 kts | 274° |
| 2026-05-08 14:39 | 56.32412 | 89.07854 | 33929 ft | 383 kts | 274° |
| 2026-05-08 14:40 | 56.32673 | 88.98278 | 33931 ft | 383 kts | 274° |
| 2026-05-08 14:40 | 56.32922 | 88.88684 | 33932 ft | 383 kts | 274° |
| 2026-05-08 14:41 | 56.33194 | 88.79082 | 33935 ft | 382 kts | 274° |
| 2026-05-08 14:41 | 56.33469 | 88.69568 | 33934 ft | 382 kts | 274° |
| 2026-05-08 14:42 | 56.33739 | 88.60024 | 33936 ft | 382 kts | 274° |
| 2026-05-08 14:42 | 56.33991 | 88.50471 | 33941 ft | 382 kts | 274° |
| 2026-05-08 14:43 | 56.34239 | 88.40891 | 33940 ft | 382 kts | 274° |
| 2026-05-08 14:43 | 56.34473 | 88.31285 | 33945 ft | 382 kts | 274° |
| 2026-05-08 14:44 | 56.34695 | 88.21851 | 33945 ft | 381 kts | 274° |
| 2026-05-08 14:44 | 56.34921 | 88.12245 | 33948 ft | 381 kts | 274° |
| 2026-05-08 14:45 | 56.35140 | 88.02698 | 33945 ft | 380 kts | 274° |
| 2026-05-08 14:45 | 56.35353 | 87.93212 | 33941 ft | 380 kts | 274° |
| 2026-05-08 14:46 | 56.35554 | 87.83687 | 33942 ft | 380 kts | 274° |
| 2026-05-08 14:46 | 56.35747 | 87.74179 | 33940 ft | 379 kts | 274° |
| 2026-05-08 14:47 | 56.35934 | 87.64679 | 33937 ft | 379 kts | 274° |
| 2026-05-08 14:47 | 56.36110 | 87.55181 | 33940 ft | 378 kts | 274° |
| 2026-05-08 14:48 | 56.36279 | 87.45704 | 33938 ft | 378 kts | 274° |
| 2026-05-08 14:48 | 56.36446 | 87.36225 | 33943 ft | 378 kts | 274° |
| 2026-05-08 14:49 | 56.36604 | 87.26811 | 33945 ft | 378 kts | 274° |
| 2026-05-08 14:49 | 56.36753 | 87.17333 | 33945 ft | 377 kts | 274° |
| 2026-05-08 14:50 | 56.36892 | 87.07886 | 33951 ft | 377 kts | 274° |
| 2026-05-08 14:50 | 56.37027 | 86.98391 | 33958 ft | 377 kts | 274° |
| 2026-05-08 14:51 | 56.37155 | 86.88935 | 33956 ft | 376 kts | 274° |
| 2026-05-08 14:51 | 56.37271 | 86.79556 | 33962 ft | 376 kts | 274° |
| 2026-05-08 14:52 | 56.37440 | 86.65417 | 33962 ft | 375 kts | 274° |
| 2026-05-08 14:53 | 56.37543 | 86.56007 | 33962 ft | 375 kts | 274° |
| 2026-05-08 14:53 | 56.37637 | 86.46583 | 33968 ft | 375 kts | 274° |
| 2026-05-08 14:54 | 56.37729 | 86.37281 | 33966 ft | 374 kts | 274° |
| 2026-05-08 14:54 | 56.37810 | 86.27888 | 33963 ft | 374 kts | 273° |
| 2026-05-08 14:55 | 56.37877 | 86.18466 | 33963 ft | 374 kts | 273° |
| 2026-05-08 14:55 | 56.37938 | 86.09085 | 33967 ft | 374 kts | 273° |
| 2026-05-08 14:56 | 56.37994 | 85.99701 | 33969 ft | 373 kts | 273° |
| 2026-05-08 14:56 | 56.38065 | 85.90329 | 33971 ft | 373 kts | 274° |
| 2026-05-08 14:57 | 56.38142 | 85.81059 | 33970 ft | 373 kts | 274° |
| 2026-05-08 14:57 | 56.38207 | 85.71664 | 33971 ft | 373 kts | 274° |
| 2026-05-08 14:58 | 56.38258 | 85.62317 | 33972 ft | 373 kts | 273° |
| 2026-05-08 14:58 | 56.38298 | 85.53004 | 33974 ft | 372 kts | 273° |
| 2026-05-08 14:59 | 56.38331 | 85.43705 | 33978 ft | 372 kts | 273° |
| 2026-05-08 14:59 | 56.38366 | 85.29654 | 33981 ft | 371 kts | 273° |
| 2026-05-08 15:00 | 56.38389 | 85.20368 | 33977 ft | 371 kts | 273° |
| 2026-05-08 15:00 | 56.38424 | 85.11013 | 33981 ft | 371 kts | 273° |
| 2026-05-08 15:01 | 56.38450 | 85.01802 | 33978 ft | 371 kts | 273° |
| 2026-05-08 15:01 | 56.38470 | 84.92503 | 33972 ft | 370 kts | 273° |
| 2026-05-08 15:02 | 56.38480 | 84.83221 | 33967 ft | 370 kts | 273° |
| 2026-05-08 15:02 | 56.38478 | 84.73909 | 33959 ft | 369 kts | 273° |
| 2026-05-08 15:03 | 56.38475 | 84.64624 | 33968 ft | 369 kts | 273° |
| 2026-05-08 15:03 | 56.38466 | 84.55413 | 33957 ft | 369 kts | 273° |
| 2026-05-08 15:04 | 56.38452 | 84.46141 | 33962 ft | 369 kts | 273° |
| 2026-05-08 15:04 | 56.38433 | 84.36884 | 33963 ft | 369 kts | 272° |
| 2026-05-08 15:05 | 56.38403 | 84.27672 | 33958 ft | 368 kts | 272° |
| 2026-05-08 15:05 | 56.38367 | 84.18469 | 33960 ft | 368 kts | 272° |
| 2026-05-08 15:06 | 56.38317 | 84.09218 | 33960 ft | 368 kts | 272° |
| 2026-05-08 15:06 | 56.38258 | 83.99931 | 33966 ft | 368 kts | 272° |
| 2026-05-08 15:07 | 56.38204 | 83.90692 | 33967 ft | 368 kts | 272° |
| 2026-05-08 15:07 | 56.38139 | 83.81545 | 33965 ft | 368 kts | 272° |
| 2026-05-08 15:08 | 56.38079 | 83.73787 | 33961 ft | 368 kts | 272° |
| 2026-05-08 15:08 | 56.37994 | 83.63098 | 33959 ft | 368 kts | 272° |
| 2026-05-08 15:09 | 56.37906 | 83.53806 | 33964 ft | 368 kts | 272° |
| 2026-05-08 15:09 | 56.37811 | 83.44570 | 33958 ft | 368 kts | 272° |
| 2026-05-08 15:10 | 56.37706 | 83.35390 | 33962 ft | 368 kts | 272° |
| 2026-05-08 15:10 | 56.37603 | 83.26094 | 33967 ft | 368 kts | 272° |
| 2026-05-08 15:11 | 56.37502 | 83.16856 | 33969 ft | 368 kts | 272° |
| 2026-05-08 15:11 | 56.37410 | 83.09190 | 33966 ft | 368 kts | 271° |
| 2026-05-08 15:12 | 56.37289 | 82.99899 | 33967 ft | 368 kts | 271° |
| 2026-05-08 15:12 | 56.37168 | 82.90729 | 33969 ft | 368 kts | 271° |
| 2026-05-08 15:13 | 56.37036 | 82.81522 | 33965 ft | 368 kts | 271° |
| 2026-05-08 15:13 | 56.36891 | 82.72283 | 33967 ft | 368 kts | 271° |
| 2026-05-08 15:14 | 56.36745 | 82.63042 | 33968 ft | 368 kts | 271° |
| 2026-05-08 15:14 | 56.36598 | 82.53756 | 33966 ft | 369 kts | 271° |
| 2026-05-08 15:15 | 56.36443 | 82.44527 | 33968 ft | 369 kts | 271° |
| 2026-05-08 15:15 | 56.36276 | 82.35267 | 33964 ft | 369 kts | 271° |
| 2026-05-08 15:16 | 56.36106 | 82.26101 | 33966 ft | 369 kts | 271° |
| 2026-05-08 15:16 | 56.35921 | 82.16819 | 33969 ft | 369 kts | 270° |
| 2026-05-08 15:17 | 56.35731 | 82.07556 | 33970 ft | 369 kts | 270° |
| 2026-05-08 15:17 | 56.35529 | 81.98290 | 33971 ft | 370 kts | 270° |
| 2026-05-08 15:18 | 56.35325 | 81.89023 | 33976 ft | 370 kts | 270° |
| 2026-05-08 15:18 | 56.35122 | 81.79840 | 33974 ft | 370 kts | 270° |
| 2026-05-08 15:19 | 56.34896 | 81.70520 | 33975 ft | 370 kts | 270° |
| 2026-05-08 15:19 | 56.34667 | 81.61238 | 33977 ft | 370 kts | 270° |
| 2026-05-08 15:20 | 56.34437 | 81.51952 | 33974 ft | 371 kts | 270° |
| 2026-05-08 15:20 | 56.34199 | 81.42768 | 33979 ft | 371 kts | 270° |
| 2026-05-08 15:21 | 56.33944 | 81.33454 | 33980 ft | 371 kts | 270° |
| 2026-05-08 15:21 | 56.33684 | 81.24152 | 33982 ft | 371 kts | 270° |
| 2026-05-08 15:22 | 56.33426 | 81.14867 | 33977 ft | 372 kts | 269° |
| 2026-05-08 15:22 | 56.33159 | 81.05536 | 33980 ft | 372 kts | 269° |
| 2026-05-08 15:23 | 56.32884 | 80.96223 | 33977 ft | 372 kts | 269° |
| 2026-05-08 15:23 | 56.32600 | 80.86896 | 33975 ft | 372 kts | 269° |
| 2026-05-08 15:24 | 56.32297 | 80.77575 | 33974 ft | 373 kts | 269° |
| 2026-05-08 15:24 | 56.32075 | 80.68277 | 33975 ft | 372 kts | 274° |
| 2026-05-08 15:25 | 56.32243 | 80.58981 | 33979 ft | 372 kts | 273° |
| 2026-05-08 15:25 | 56.32400 | 80.49681 | 33978 ft | 372 kts | 273° |
| 2026-05-08 15:26 | 56.32538 | 80.40362 | 33979 ft | 373 kts | 273° |
| 2026-05-08 15:26 | 56.32669 | 80.30966 | 33983 ft | 373 kts | 273° |
| 2026-05-08 15:27 | 56.32794 | 80.21616 | 33987 ft | 373 kts | 273° |
| 2026-05-08 15:27 | 56.32913 | 80.12352 | 33986 ft | 374 kts | 272° |
| 2026-05-08 15:28 | 56.33022 | 80.02917 | 33984 ft | 374 kts | 272° |
| 2026-05-08 15:28 | 56.33129 | 79.93573 | 33983 ft | 374 kts | 272° |
| 2026-05-08 15:29 | 56.33231 | 79.84230 | 33981 ft | 375 kts | 272° |
| 2026-05-08 15:29 | 56.33326 | 79.74816 | 33982 ft | 375 kts | 272° |
| 2026-05-08 15:30 | 56.33412 | 79.65416 | 33986 ft | 375 kts | 272° |
| 2026-05-08 15:30 | 56.33478 | 79.55969 | 33986 ft | 376 kts | 272° |
| 2026-05-08 15:31 | 56.33547 | 79.46549 | 33985 ft | 376 kts | 272° |
| 2026-05-08 15:31 | 56.33616 | 79.37119 | 33984 ft | 376 kts | 272° |
| 2026-05-08 15:32 | 56.33678 | 79.27687 | 33986 ft | 376 kts | 272° |
| 2026-05-08 15:32 | 56.33722 | 79.18291 | 33986 ft | 377 kts | 272° |
| 2026-05-08 15:33 | 56.33762 | 79.08832 | 33983 ft | 377 kts | 272° |
| 2026-05-08 15:33 | 56.33798 | 78.99382 | 33978 ft | 377 kts | 272° |
| 2026-05-08 15:34 | 56.33824 | 78.89902 | 33980 ft | 377 kts | 271° |
| 2026-05-08 15:34 | 56.33845 | 78.80498 | 33979 ft | 378 kts | 271° |
| 2026-05-08 15:35 | 56.33859 | 78.71006 | 33979 ft | 378 kts | 271° |
| 2026-05-08 15:35 | 56.33862 | 78.61511 | 33977 ft | 378 kts | 271° |
| 2026-05-08 15:36 | 56.33866 | 78.53620 | 33978 ft | 379 kts | 271° |
| 2026-05-08 15:36 | 56.33856 | 78.42578 | 33972 ft | 379 kts | 271° |
| 2026-05-08 15:37 | 56.33832 | 78.33060 | 33975 ft | 379 kts | 271° |
| 2026-05-08 15:37 | 56.33769 | 78.23536 | 33972 ft | 380 kts | 270° |
| 2026-05-08 15:38 | 56.33692 | 78.14013 | 33973 ft | 380 kts | 270° |
| 2026-05-08 15:38 | 56.33613 | 78.04463 | 33971 ft | 380 kts | 270° |
| 2026-05-08 15:39 | 56.33532 | 77.94924 | 33971 ft | 381 kts | 270° |
| 2026-05-08 15:39 | 56.33436 | 77.85385 | 33975 ft | 381 kts | 270° |
| 2026-05-08 15:40 | 56.33328 | 77.75884 | 33969 ft | 381 kts | 270° |
| 2026-05-08 15:40 | 56.33215 | 77.66333 | 33972 ft | 381 kts | 270° |
| 2026-05-08 15:41 | 56.33103 | 77.56754 | 33970 ft | 381 kts | 270° |
| 2026-05-08 15:41 | 56.32978 | 77.47202 | 33969 ft | 382 kts | 270° |
| 2026-05-08 15:42 | 56.32831 | 77.37687 | 33970 ft | 382 kts | 270° |
| 2026-05-08 15:42 | 56.32675 | 77.28116 | 33968 ft | 382 kts | 270° |
| 2026-05-08 15:43 | 56.32510 | 77.18545 | 33969 ft | 382 kts | 269° |
| 2026-05-08 15:43 | 56.32337 | 77.08970 | 33968 ft | 382 kts | 269° |
| 2026-05-08 15:44 | 56.32161 | 76.99432 | 33968 ft | 382 kts | 269° |
| 2026-05-08 15:44 | 56.31980 | 76.89849 | 33968 ft | 382 kts | 269° |
| 2026-05-08 15:45 | 56.31793 | 76.80270 | 33967 ft | 383 kts | 269° |
| 2026-05-08 15:45 | 56.31598 | 76.70681 | 33963 ft | 383 kts | 269° |
| 2026-05-08 15:46 | 56.31385 | 76.61099 | 33962 ft | 383 kts | 269° |
| 2026-05-08 15:46 | 56.31167 | 76.51511 | 33960 ft | 383 kts | 269° |
| 2026-05-08 15:47 | 56.30950 | 76.41905 | 33963 ft | 384 kts | 269° |
| 2026-05-08 15:47 | 56.30722 | 76.32299 | 33965 ft | 384 kts | 269° |
| 2026-05-08 15:48 | 56.30367 | 76.17973 | 33962 ft | 383 kts | 269° |
| 2026-05-08 15:49 | 56.30115 | 76.08369 | 33965 ft | 384 kts | 269° |
| 2026-05-08 15:49 | 56.29858 | 75.98772 | 33959 ft | 384 kts | 268° |
| 2026-05-08 15:50 | 56.29597 | 75.89167 | 33961 ft | 384 kts | 268° |
| 2026-05-08 15:50 | 56.29328 | 75.79567 | 33963 ft | 384 kts | 268° |
| 2026-05-08 15:51 | 56.29057 | 75.69960 | 33961 ft | 384 kts | 268° |
| 2026-05-08 15:51 | 56.28770 | 75.60346 | 33961 ft | 385 kts | 268° |
| 2026-05-08 15:52 | 56.28468 | 75.50724 | 33962 ft | 385 kts | 268° |
| 2026-05-08 15:52 | 56.28166 | 75.41097 | 33968 ft | 385 kts | 268° |
| 2026-05-08 15:53 | 56.27863 | 75.31490 | 33963 ft | 385 kts | 268° |
| 2026-05-08 15:53 | 56.27555 | 75.21940 | 33962 ft | 385 kts | 268° |
| 2026-05-08 15:54 | 56.27223 | 75.12344 | 33958 ft | 384 kts | 267° |
| 2026-05-08 15:54 | 56.26888 | 75.02724 | 33971 ft | 384 kts | 267° |
| 2026-05-08 15:55 | 56.26553 | 74.93124 | 33958 ft | 384 kts | 267° |
| 2026-05-08 15:55 | 56.26048 | 74.78794 | 33951 ft | 384 kts | 267° |
| 2026-05-08 15:56 | 56.25694 | 74.69202 | 33961 ft | 384 kts | 267° |
| 2026-05-08 15:56 | 56.25332 | 74.59611 | 33960 ft | 384 kts | 267° |
| 2026-05-08 15:57 | 56.24960 | 74.50012 | 33950 ft | 384 kts | 267° |
| 2026-05-08 15:57 | 56.24574 | 74.40405 | 33946 ft | 385 kts | 266° |
| 2026-05-08 15:58 | 56.24184 | 74.30857 | 33951 ft | 385 kts | 266° |
| 2026-05-08 15:58 | 56.23795 | 74.21254 | 33944 ft | 385 kts | 266° |
| 2026-05-08 15:59 | 56.23464 | 74.13194 | 33951 ft | 385 kts | 266° |
| 2026-05-08 15:59 | 56.23058 | 74.03636 | 33958 ft | 386 kts | 266° |
| 2026-05-08 16:00 | 56.22624 | 73.94022 | 33953 ft | 386 kts | 264° |
| 2026-05-08 16:00 | 56.21585 | 73.84533 | 33949 ft | 387 kts | 259° |
| 2026-05-08 16:01 | 56.20461 | 73.75139 | 33945 ft | 387 kts | 259° |
| 2026-05-08 16:01 | 56.19323 | 73.65688 | 33933 ft | 387 kts | 259° |
| 2026-05-08 16:02 | 56.18175 | 73.56232 | 33942 ft | 388 kts | 259° |
| 2026-05-08 16:02 | 56.17017 | 73.46746 | 33928 ft | 388 kts | 258° |
| 2026-05-08 16:03 | 56.15851 | 73.37283 | 33924 ft | 389 kts | 258° |
| 2026-05-08 16:03 | 56.14677 | 73.27814 | 33930 ft | 389 kts | 258° |
| 2026-05-08 16:04 | 56.13497 | 73.18389 | 33932 ft | 390 kts | 258° |
| 2026-05-08 16:04 | 56.12301 | 73.08900 | 33934 ft | 390 kts | 258° |
| 2026-05-08 16:05 | 56.11103 | 72.99387 | 33931 ft | 391 kts | 258° |
| 2026-05-08 16:05 | 56.09900 | 72.89873 | 33921 ft | 392 kts | 258° |
| 2026-05-08 16:06 | 56.08683 | 72.80351 | 33923 ft | 392 kts | 257° |
| 2026-05-08 16:06 | 56.07450 | 72.70835 | 33921 ft | 392 kts | 257° |
| 2026-05-08 16:07 | 56.06221 | 72.61369 | 33916 ft | 393 kts | 257° |
| 2026-05-08 16:07 | 56.04977 | 72.51830 | 33910 ft | 394 kts | 257° |
| 2026-05-08 16:08 | 56.03725 | 72.42291 | 33912 ft | 394 kts | 257° |
| 2026-05-08 16:08 | 56.02460 | 72.32741 | 33915 ft | 395 kts | 257° |
| 2026-05-08 16:09 | 56.01185 | 72.23179 | 33920 ft | 395 kts | 257° |
| 2026-05-08 16:09 | 55.99912 | 72.13649 | 33908 ft | 396 kts | 256° |
| 2026-05-08 16:10 | 55.98620 | 72.04089 | 33915 ft | 396 kts | 256° |
| 2026-05-08 16:10 | 55.97316 | 71.94515 | 33913 ft | 397 kts | 256° |
| 2026-05-08 16:11 | 55.96007 | 71.84932 | 33906 ft | 397 kts | 256° |
| 2026-05-08 16:11 | 55.94695 | 71.75348 | 33912 ft | 398 kts | 256° |
| 2026-05-08 16:12 | 55.93374 | 71.65772 | 33906 ft | 398 kts | 256° |
| 2026-05-08 16:12 | 55.92038 | 71.56166 | 33912 ft | 399 kts | 256° |
| 2026-05-08 16:13 | 55.90696 | 71.46627 | 33903 ft | 399 kts | 256° |
| 2026-05-08 16:13 | 55.89335 | 71.36985 | 33901 ft | 400 kts | 256° |
| 2026-05-08 16:14 | 55.87976 | 71.27384 | 33893 ft | 400 kts | 255° |
| 2026-05-08 16:14 | 55.86610 | 71.17828 | 33894 ft | 400 kts | 255° |
| 2026-05-08 16:15 | 55.85226 | 71.08206 | 33892 ft | 401 kts | 255° |
| 2026-05-08 16:15 | 55.83831 | 70.98596 | 33900 ft | 402 kts | 255° |
| 2026-05-08 16:16 | 55.82429 | 70.88964 | 33892 ft | 402 kts | 255° |
| 2026-05-08 16:16 | 55.81030 | 70.79383 | 33901 ft | 402 kts | 255° |
| 2026-05-08 16:17 | 55.79854 | 70.71361 | 33891 ft | 403 kts | 255° |
| 2026-05-08 16:17 | 55.78189 | 70.60079 | 33897 ft | 403 kts | 255° |
| 2026-05-08 16:18 | 55.76745 | 70.50429 | 33888 ft | 404 kts | 255° |
| 2026-05-08 16:18 | 55.75301 | 70.40797 | 33891 ft | 404 kts | 255° |
| 2026-05-08 16:19 | 55.73859 | 70.31222 | 33886 ft | 404 kts | 255° |
| 2026-05-08 16:19 | 55.72394 | 70.21595 | 33883 ft | 404 kts | 255° |
| 2026-05-08 16:20 | 55.70924 | 70.11959 | 33893 ft | 405 kts | 255° |
| 2026-05-08 16:20 | 55.69445 | 70.02334 | 33879 ft | 405 kts | 255° |
| 2026-05-08 16:21 | 55.67961 | 69.92701 | 33887 ft | 405 kts | 254° |
| 2026-05-08 16:21 | 55.66470 | 69.83062 | 33883 ft | 405 kts | 254° |
| 2026-05-08 16:22 | 55.64964 | 69.73416 | 33881 ft | 406 kts | 254° |
| 2026-05-08 16:22 | 55.63450 | 69.63794 | 33868 ft | 406 kts | 254° |
| 2026-05-08 16:23 | 55.61930 | 69.54163 | 33870 ft | 406 kts | 254° |
| 2026-05-08 16:23 | 55.60413 | 69.44591 | 33877 ft | 407 kts | 254° |
| 2026-05-08 16:24 | 55.58871 | 69.34957 | 33882 ft | 407 kts | 254° |
| 2026-05-08 16:24 | 55.57325 | 69.25344 | 33872 ft | 407 kts | 254° |
| 2026-05-08 16:25 | 55.56319 | 69.15532 | 33867 ft | 407 kts | 268° |
| 2026-05-08 16:25 | 55.56212 | 69.05523 | 33882 ft | 408 kts | 268° |
| 2026-05-08 16:26 | 55.56084 | 68.95505 | 33873 ft | 408 kts | 268° |
| 2026-05-08 16:26 | 55.55952 | 68.85540 | 33867 ft | 408 kts | 268° |
| 2026-05-08 16:27 | 55.55808 | 68.75491 | 33883 ft | 409 kts | 268° |
| 2026-05-08 16:27 | 55.55658 | 68.65452 | 33875 ft | 409 kts | 268° |
| 2026-05-08 16:28 | 55.55500 | 68.55402 | 33875 ft | 409 kts | 268° |
| 2026-05-08 16:28 | 55.55338 | 68.45356 | 33872 ft | 409 kts | 267° |
| 2026-05-08 16:29 | 55.55165 | 68.35312 | 33866 ft | 409 kts | 267° |
| 2026-05-08 16:29 | 55.54985 | 68.25335 | 33864 ft | 409 kts | 267° |
| 2026-05-08 16:30 | 55.54796 | 68.15291 | 33871 ft | 409 kts | 267° |
| 2026-05-08 16:30 | 55.54592 | 68.05241 | 33873 ft | 409 kts | 267° |
| 2026-05-08 16:31 | 55.54405 | 67.95195 | 33871 ft | 409 kts | 268° |
| 2026-05-08 16:31 | 55.54267 | 67.85131 | 33880 ft | 409 kts | 268° |
| 2026-05-08 16:32 | 55.54119 | 67.75133 | 33875 ft | 409 kts | 267° |
| 2026-05-08 16:32 | 55.53942 | 67.65082 | 33871 ft | 409 kts | 267° |
| 2026-05-08 16:33 | 55.53758 | 67.55029 | 33876 ft | 409 kts | 267° |
| 2026-05-08 16:33 | 55.53578 | 67.44992 | 33877 ft | 408 kts | 267° |
| 2026-05-08 16:34 | 55.53389 | 67.35025 | 33871 ft | 408 kts | 267° |
| 2026-05-08 16:34 | 55.53193 | 67.25013 | 33872 ft | 408 kts | 267° |
| 2026-05-08 16:35 | 55.52985 | 67.14997 | 33875 ft | 408 kts | 267° |
| 2026-05-08 16:35 | 55.52762 | 67.04980 | 33851 ft | 409 kts | 266° |
| 2026-05-08 16:36 | 55.52532 | 66.94929 | 33853 ft | 410 kts | 266° |
| 2026-05-08 16:36 | 55.52295 | 66.84928 | 33861 ft | 410 kts | 266° |
| 2026-05-08 16:37 | 55.52048 | 66.74889 | 33862 ft | 410 kts | 266° |
| 2026-05-08 16:37 | 55.51798 | 66.64830 | 33863 ft | 410 kts | 266° |
| 2026-05-08 16:38 | 55.51543 | 66.54785 | 33864 ft | 409 kts | 266° |
| 2026-05-08 16:38 | 55.51273 | 66.44747 | 33863 ft | 409 kts | 266° |
| 2026-05-08 16:39 | 55.50994 | 66.34782 | 33866 ft | 409 kts | 266° |
| 2026-05-08 16:39 | 55.50670 | 66.24742 | 33863 ft | 409 kts | 265° |
| 2026-05-08 16:40 | 55.50313 | 66.14727 | 33863 ft | 409 kts | 265° |
| 2026-05-08 16:40 | 55.49957 | 66.04718 | 33862 ft | 409 kts | 265° |
| 2026-05-08 16:41 | 55.49598 | 65.94710 | 33857 ft | 408 kts | 265° |
| 2026-05-08 16:42 | 55.49048 | 65.79712 | 33857 ft | 409 kts | 265° |
| 2026-05-08 16:42 | 55.48658 | 65.69718 | 33858 ft | 409 kts | 265° |
| 2026-05-08 16:43 | 55.48263 | 65.59792 | 33866 ft | 409 kts | 265° |
| 2026-05-08 16:43 | 55.47873 | 65.49797 | 33857 ft | 409 kts | 265° |
| 2026-05-08 16:44 | 55.47493 | 65.39797 | 33855 ft | 408 kts | 266° |
| 2026-05-08 16:44 | 55.47444 | 65.29782 | 33851 ft | 409 kts | 270° |
| 2026-05-08 16:45 | 55.47565 | 65.19760 | 33851 ft | 409 kts | 270° |
| 2026-05-08 16:45 | 55.47645 | 65.09709 | 33855 ft | 409 kts | 269° |
| 2026-05-08 16:46 | 55.47651 | 64.99737 | 33853 ft | 409 kts | 269° |
| 2026-05-08 16:46 | 55.47639 | 64.89721 | 33855 ft | 409 kts | 269° |
| 2026-05-08 16:47 | 55.47626 | 64.79703 | 33858 ft | 409 kts | 269° |
| 2026-05-08 16:47 | 55.47614 | 64.71375 | 33861 ft | 408 kts | 269° |
| 2026-05-08 16:48 | 55.47596 | 64.61356 | 33854 ft | 408 kts | 268° |
| 2026-05-08 16:48 | 55.47556 | 64.51336 | 33852 ft | 408 kts | 268° |
| 2026-05-08 16:49 | 55.47518 | 64.41327 | 33854 ft | 408 kts | 269° |
| 2026-05-08 16:49 | 55.47515 | 64.31318 | 33864 ft | 408 kts | 269° |
| 2026-05-08 16:50 | 55.47509 | 64.21315 | 33858 ft | 408 kts | 269° |
| 2026-05-08 16:50 | 55.47489 | 64.11340 | 33859 ft | 408 kts | 269° |
| 2026-05-08 16:51 | 55.47452 | 64.01330 | 33860 ft | 408 kts | 268° |
| 2026-05-08 16:51 | 55.47407 | 63.91308 | 33854 ft | 408 kts | 268° |
| 2026-05-08 16:52 | 55.47363 | 63.81278 | 33856 ft | 408 kts | 268° |
| 2026-05-08 16:52 | 55.47308 | 63.71270 | 33855 ft | 408 kts | 268° |
| 2026-05-08 16:53 | 55.47203 | 63.56371 | 33858 ft | 408 kts | 268° |
| 2026-05-08 16:53 | 55.47128 | 63.46350 | 33853 ft | 407 kts | 268° |
| 2026-05-08 16:54 | 55.47047 | 63.36370 | 33851 ft | 407 kts | 268° |
| 2026-05-08 16:54 | 55.46968 | 63.26392 | 33855 ft | 406 kts | 268° |
| 2026-05-08 16:55 | 55.46872 | 63.16435 | 33844 ft | 406 kts | 268° |
| 2026-05-08 16:55 | 55.46749 | 63.06552 | 33841 ft | 406 kts | 268° |
| 2026-05-08 16:56 | 55.46375 | 62.96637 | 33845 ft | 405 kts | 263° |
| 2026-05-08 16:56 | 55.45717 | 62.86751 | 33838 ft | 405 kts | 262° |
| 2026-05-08 16:57 | 55.45053 | 62.76965 | 33843 ft | 405 kts | 262° |
| 2026-05-08 16:57 | 55.44376 | 62.67122 | 33848 ft | 404 kts | 262° |
| 2026-05-08 16:58 | 55.43693 | 62.57274 | 33843 ft | 404 kts | 262° |
| 2026-05-08 16:58 | 55.43004 | 62.47446 | 33844 ft | 404 kts | 262° |
| 2026-05-08 16:59 | 55.42310 | 62.37692 | 33838 ft | 404 kts | 262° |
| 2026-05-08 16:59 | 55.41603 | 62.27897 | 33843 ft | 404 kts | 262° |
| 2026-05-08 17:00 | 55.40886 | 62.18068 | 33847 ft | 404 kts | 262° |
| 2026-05-08 17:00 | 55.40166 | 62.08275 | 33853 ft | 404 kts | 262° |
| 2026-05-08 17:01 | 55.39436 | 61.98455 | 33857 ft | 404 kts | 262° |
| 2026-05-08 17:01 | 55.38702 | 61.88658 | 33860 ft | 403 kts | 262° |
| 2026-05-08 17:02 | 55.37955 | 61.78881 | 33864 ft | 403 kts | 262° |
| 2026-05-08 17:02 | 55.37206 | 61.69175 | 33870 ft | 403 kts | 262° |
| 2026-05-08 17:03 | 55.36448 | 61.59416 | 33869 ft | 403 kts | 262° |
| 2026-05-08 17:03 | 55.35682 | 61.49663 | 33864 ft | 402 kts | 261° |
| 2026-05-08 17:04 | 55.34911 | 61.39928 | 33866 ft | 402 kts | 261° |
| 2026-05-08 17:04 | 55.34135 | 61.30192 | 33861 ft | 402 kts | 261° |
| 2026-05-08 17:05 | 55.33348 | 61.20473 | 33858 ft | 402 kts | 261° |
| 2026-05-08 17:05 | 55.32546 | 61.10736 | 33858 ft | 402 kts | 261° |
| 2026-05-08 17:06 | 55.31746 | 61.01079 | 33854 ft | 402 kts | 261° |
| 2026-05-08 17:06 | 55.30940 | 60.91355 | 33845 ft | 402 kts | 261° |
| 2026-05-08 17:07 | 55.30121 | 60.81628 | 33845 ft | 402 kts | 261° |
| 2026-05-08 17:07 | 55.29287 | 60.71927 | 33844 ft | 402 kts | 261° |
| 2026-05-08 17:08 | 55.28442 | 60.62204 | 33837 ft | 403 kts | 261° |
| 2026-05-08 17:08 | 55.27597 | 60.52495 | 33840 ft | 403 kts | 261° |
| 2026-05-08 17:09 | 55.26755 | 60.42834 | 33832 ft | 403 kts | 261° |
| 2026-05-08 17:09 | 55.25899 | 60.33107 | 33833 ft | 403 kts | 260° |
| 2026-05-08 17:10 | 55.25753 | 60.31460 | 33831 ft | 404 kts | 261° |